首页
METAR-TAF:

METAR-TAF

机场 :

倫敦希斯路機場, 英格兰

纬度: 51-29N, 经度: 000-27W, 海拔: 24米

当前天气观测

该预报发布于21分钟前的06:50 UTC
风速2节,风向多变
温度 12°C
湿度 88%
气压 1009 hPa
能見度: 6000

METAR: EGLL 190650Z AUTO VRB02KT 6000 NCD 12/10 Q1009

时间: 08:11 (07:11 UTC)

预报

该预报发布于2小时和19分钟前的04:52 UTC
预报有效从19日的 06点(UTC)到 20日的 12点(UTC)
风速3节,风向多变
能見度: 7000
少量云层高于4000英尺
几率 30%
从 19日的 06点(UTC)到 19日的 07点(UTC)
能見度: 4000
轻雾
成为
从 19日的 07点(UTC)到 19日的 10点(UTC)
能见度10公里或以上
几率 30% :
短暂存在
从 19日的 13点(UTC)到 19日的 19点(UTC)
能見度: 6000
阵雨
几率 30% :
短暂存在
从 19日的 19点(UTC)到 19日的 24点(UTC)
能見度: 8000
小阵雨
短暂存在
从 20日的 00点(UTC)到 20日的 08点(UTC)
能見度: 7000
几率 30% :
短暂存在
从 20日的 02点(UTC)到 20日的 07点(UTC)
能見度: 4000
多云层高于400英尺
轻雾

TAF: EGLL 190452Z 1906/2012 VRB03KT 7000 FEW040 PROB30 1906/1907 4000 BR BECMG 1907/1910 9999 PROB30 TEMPO 1913/1919 6000 SHRA PROB30 TEMPO 1919/1924 8000 -SHRA TEMPO 2000/2008 7000 PROB30 TEMPO 2002/2007 4000 BR BKN004

超过4000个机场的气象观测和天气预报(METAR&TAF报告)。

可查询的气象台以黄色和红色小点在地图上表示。

将鼠标移到小点上方,可查看气象台名称。

然后点击查看天气观测和预报。

如需切换地图:点击带黑十字的绿色按钮放大地图;点击带横线的绿色按钮缩小地图;或者点击绿色箭头查看邻近地区的地图。


METAR-TAF: